CheckWX is a tool to help pilots better visualize weather data.  It is not intended as a substitute for an official pre-flight weather briefing.

05:12:03 UTC

VOCB TAF
Coimbatore International Airport
Coimbatore, India
TAF VOCB 232300Z 2400/2506 09010KT 3000 BR FEW015 BECMG 2403/2404 5000 HZ BECMG 2406/2407 6000 BECMG 2418/2419 5000 HZ BECMG 2500/2501 3000 BR BECMG 2503/2504 5000 HZ

Feb-24@
00:00 UTC

Feb-24 @ 00:00 UTC

Feb-24@
03:00 UTC

Feb-24 @ 03:00 UTC

TAF VOCB 232300Z 2400/2506 09010KT 3000 BR FEW015

Expired

Wind
  • 090° at 10 KTS
Conditions
Mist
Cloud Levels
  • Few at 1,500' AGL

Feb-24@
03:00 UTC

Feb-24 @ 03:00 UTC

Feb-24@
06:00 UTC

Feb-24 @ 06:00 UTC

BECMG 2403/2404 5000 HZ

Becoming

Becoming Conditions expected by Sun, Feb 24, 2019 @ 04:00 UTC

Wind
  • 090° at 10 KTS
Conditions
Haze
Cloud Levels
  • Few at 1,500' AGL

Feb-24@
06:00 UTC

Feb-24 @ 06:00 UTC

Feb-24@
18:00 UTC

Feb-24 @ 18:00 UTC

BECMG 2406/2407 6000

Becoming

Becoming Conditions expected by Sun, Feb 24, 2019 @ 07:00 UTC

Wind
  • 090° at 10 KTS
Conditions
Haze
Cloud Levels
  • Few at 1,500' AGL

Feb-24@
18:00 UTC

Feb-24 @ 18:00 UTC

Feb-25@
00:00 UTC

Feb-25 @ 00:00 UTC

BECMG 2418/2419 5000 HZ

Becoming

Becoming Conditions expected by Sun, Feb 24, 2019 @ 19:00 UTC

Wind
  • 090° at 10 KTS
Conditions
Haze
Cloud Levels
  • Few at 1,500' AGL

Feb-25@
00:00 UTC

Feb-25 @ 00:00 UTC

Feb-25@
03:00 UTC

Feb-25 @ 03:00 UTC

BECMG 2500/2501 3000 BR

Becoming

Becoming Conditions expected by Mon, Feb 25, 2019 @ 01:00 UTC

Wind
  • 090° at 10 KTS
Conditions
Mist
Cloud Levels
  • Few at 1,500' AGL

Feb-25@
03:00 UTC

Feb-25 @ 03:00 UTC

Feb-25@
06:00 UTC

Feb-25 @ 06:00 UTC

BECMG 2503/2504 5000 HZ

Becoming

Becoming Conditions expected by Mon, Feb 25, 2019 @ 04:00 UTC

Wind
  • 090° at 10 KTS
Conditions
Haze
Cloud Levels
  • Few at 1,500' AGL